Time;durP1;ratioP1;P1;durP2;ratioP2;P2;SDS_P1;SDS_P2;PMS_P1;PMS_P2;Temp;Humidity;BMP_temperature;BMP_pressure;BME280_temperature;BME280_humidity;BME280_pressure;Samples;Min_cycle;Max_cycle;Signal;HPM_P1;HPM_P2
2021/06/02 00:00:26;;;;;;;4.68;4.47;;;;;;;14.25;63.83;101086.03;4421604;32;20673;-66
2021/06/02 00:02:54;;;;;;;4.78;4.57;;;;;;;14.24;63.52;101073.75;4419067;32;20120;-67
2021/06/02 00:05:19;;;;;;;4.55;4.35;;;;;;;14.21;63.57;101073.91;4423190;32;20083;-67
2021/06/02 00:07:45;;;;;;;4.90;4.65;;;;;;;14.17;63.79;101067.13;4418083;32;20072;-67
2021/06/02 00:10:11;;;;;;;4.60;4.40;;;;;;;14.16;63.84;101068.09;4410276;32;20077;-66
2021/06/02 00:12:36;;;;;;;4.47;4.28;;;;;;;13.05;63.84;100887.50;4420636;32;20076;-67
2021/06/02 00:15:03;;;;;;;4.60;4.40;;;;;;;13.81;64.02;101020.09;4422296;32;20073;-67
2021/06/02 00:17:29;;;;;;;4.90;4.60;;;;;;;14.02;65.14;101068.09;4412101;32;20087;-67
2021/06/02 00:19:54;;;;;;;4.80;4.60;;;;;;;13.97;66.67;101078.91;4430150;32;20072;-68
2021/06/02 00:22:19;;;;;;;4.90;4.70;;;;;;;13.87;66.57;101070.72;4406040;32;20080;-66
2021/06/02 00:24:45;;;;;;;5.40;5.10;;;;;;;13.75;67.36;101067.03;4428991;32;20087;-66
2021/06/02 00:27:11;;;;;;;6.80;6.50;;;;;;;13.68;67.59;101067.47;4420378;32;20337;-67
2021/06/02 00:29:37;;;;;;;4.80;4.50;;;;;;;13.51;67.48;101053.50;4416629;32;20076;-67
2021/06/02 00:32:06;;;;;;;4.43;4.22;;;;;;;13.59;67.85;101068.88;4414417;32;20073;-67
2021/06/02 00:34:31;;;;;;;4.50;4.30;;;;;;;13.57;68.00;101068.97;4427103;32;20194;-66
2021/06/02 00:37:00;;;;;;;4.60;4.40;;;;;;;13.51;68.69;101069.31;4410790;32;20091;-67
2021/06/02 00:39:26;;;;;;;4.90;4.70;;;;;;;13.50;68.73;101066.78;4418325;32;20175;-67
2021/06/02 00:41:51;;;;;;;4.68;4.47;;;;;;;13.49;68.53;101062.41;4413584;32;20454;-67
2021/06/02 00:44:18;;;;;;;4.60;4.40;;;;;;;13.21;68.73;101018.34;4417990;32;20195;-66
2021/06/02 00:46:44;;;;;;;7.93;4.85;;;;;;;13.49;68.74;101065.94;4413418;32;20068;-66
2021/06/02 00:49:15;;;;;;;5.03;4.62;;;;;;;13.49;68.24;101065.06;4416680;32;20566;-67
2021/06/02 00:51:41;;;;;;;4.60;4.40;;;;;;;13.46;67.68;101063.44;4413789;32;20791;-67
2021/06/02 00:54:06;;;;;;;4.60;4.40;;;;;;;13.45;67.48;101059.12;4417331;32;20080;-67
2021/06/02 00:56:42;;;;;;;4.55;4.35;;;;;;;13.41;67.04;101054.97;4413014;32;20262;-67
2021/06/02 00:59:08;;;;;;;4.62;4.37;;;;;;;13.40;67.00;101060.34;4411668;32;20585;-67
2021/06/02 01:01:34;;;;;;;5.22;4.93;;;;;;;13.35;66.75;101053.53;4454230;32;20057;-67
2021/06/02 01:04:00;;;;;;;4.40;4.20;;;;;;;13.26;67.40;101047.94;4414371;32;20080;-66
2021/06/02 01:06:27;;;;;;;4.50;4.30;;;;;;;13.26;67.93;101054.03;4417298;32;20688;-67
2021/06/02 01:08:52;;;;;;;4.43;4.22;;;;;;;13.20;67.85;101053.53;4444361;32;20761;-67
2021/06/02 01:11:18;;;;;;;4.80;4.60;;;;;;;13.14;68.50;101052.09;4413913;32;20065;-67
2021/06/02 01:13:43;;;;;;;4.62;4.43;;;;;;;13.08;67.82;101045.41;4414876;32;20125;-67
2021/06/02 01:16:09;;;;;;;4.50;4.30;;;;;;;13.06;68.50;101056.97;4416410;32;20789;-67
2021/06/02 01:18:35;;;;;;;4.78;4.47;;;;;;;13.01;68.86;101057.25;4413868;32;20069;-67
2021/06/02 01:21:00;;;;;;;4.37;4.18;;;;;;;12.97;68.96;101061.00;4415919;32;20581;-67
2021/06/02 01:23:25;;;;;;;4.93;4.62;;;;;;;12.93;69.05;101059.47;4396924;32;20064;-66
2021/06/02 01:25:51;;;;;;;4.50;4.30;;;;;;;12.87;68.67;101055.38;4425387;32;20064;-66
2021/06/02 01:28:16;;;;;;;5.62;5.43;;;;;;;12.84;68.78;101057.34;4445535;32;20559;-67
2021/06/02 01:30:41;;;;;;;4.87;4.60;;;;;;;12.80;68.68;101055.81;4415040;32;20286;-67
2021/06/02 01:33:27;;;;;;;5.25;5.05;;;;;;;12.80;68.84;101063.72;4414117;32;20068;-67
2021/06/02 01:36:12;;;;;;;4.20;4.00;;;;;;;12.75;68.44;101054.28;4431513;32;20084;-66
2021/06/02 01:39:02;;;;;;;4.40;4.20;;;;;;;12.73;67.89;101057.94;4424326;32;20609;-66
2021/06/02 01:41:32;;;;;;;4.30;4.10;;;;;;;12.68;68.33;101055.53;4442969;32;20194;-67
2021/06/02 01:44:29;;;;;;;4.20;4.00;;;;;;;12.67;68.15;101064.37;4433903;32;20139;-67
2021/06/02 01:47:19;;;;;;;4.53;4.32;;;;;;;12.63;69.26;101057.59;4445011;32;20534;-67
2021/06/02 01:50:19;;;;;;;5.15;4.95;;;;;;;12.60;68.37;101057.75;4449753;32;20068;-66
2021/06/02 01:53:00;;;;;;;4.30;4.10;;;;;;;12.52;68.97;101052.91;4401606;32;20142;-67
2021/06/02 01:55:47;;;;;;;4.35;4.15;;;;;;;12.50;69.09;101051.28;4441009;32;20153;-67
2021/06/02 01:58:51;;;;;;;4.32;4.12;;;;;;;12.47;69.95;101047.06;4445287;32;20100;-66
2021/06/02 02:01:26;;;;;;;4.50;4.30;;;;;;;12.48;70.08;101047.88;4440034;32;20695;-67
2021/06/02 02:04:20;;;;;;;4.40;4.20;;;;;;;12.49;69.16;101041.72;4440097;32;20083;-66
2021/06/02 02:07:13;;;;;;;4.70;4.50;;;;;;;12.52;69.47;101044.16;4450722;32;20059;-66
2021/06/02 02:09:54;;;;;;;4.85;4.65;;;;;;;12.53;69.61;101037.97;4446336;32;20689;-66
2021/06/02 02:12:28;;;;;;;4.20;4.00;;;;;;;12.52;69.91;101037.09;4446236;32;20072;-66
2021/06/02 02:15:18;;;;;;;4.50;4.30;;;;;;;12.43;71.08;101036.75;4449742;32;20099;-66
2021/06/02 02:17:55;;;;;;;4.70;4.50;;;;;;;12.39;71.27;101044.00;4448719;32;20075;-66
2021/06/02 02:20:41;;;;;;;4.35;4.15;;;;;;;12.33;71.29;101041.69;4422644;32;20229;-66
2021/06/02 02:23:36;;;;;;;4.70;4.40;;;;;;;11.72;72.60;100972.94;4453109;32;20527;-66
2021/06/02 02:26:29;;;;;;;4.55;4.25;;;;;;;12.15;72.15;101046.16;4449615;32;20191;-66
2021/06/02 02:29:32;;;;;;;4.18;3.97;;;;;;;12.05;73.27;101052.84;4443802;32;20068;-66
2021/06/02 02:32:04;;;;;;;4.57;4.37;;;;;;;12.01;72.75;101043.37;4451814;32;20608;-65
2021/06/02 02:34:56;;;;;;;4.60;4.40;;;;;;;11.96;73.16;101041.84;4448132;32;20080;-65
2021/06/02 02:37:34;;;;;;;4.70;4.50;;;;;;;11.97;73.19;101035.66;4433658;32;20092;-66
2021/06/02 02:40:08;;;;;;;4.30;4.10;;;;;;;11.96;73.14;101038.38;4421846;32;20726;-67
2021/06/02 02:43:06;;;;;;;4.40;4.20;;;;;;;11.94;72.93;101041.06;4425630;32;20100;-68
2021/06/02 02:45:36;;;;;;;4.37;4.18;;;;;;;11.97;72.33;101048.81;4402354;32;20571;-65
2021/06/02 02:48:19;;;;;;;4.30;4.10;;;;;;;11.98;71.49;101045.25;4400656;32;20065;-67
2021/06/02 02:51:07;;;;;;;4.60;4.40;;;;;;;11.98;71.57;101041.78;4413375;32;20099;-65
2021/06/02 02:53:46;;;;;;;4.40;4.20;;;;;;;11.96;71.85;101049.72;4410991;32;20087;-68
2021/06/02 02:56:18;;;;;;;4.75;4.55;;;;;;;11.96;71.13;101049.72;4413780;32;20064;-68
2021/06/02 02:59:08;;;;;;;4.72;4.43;;;;;;;11.95;71.87;101052.47;4408838;32;20157;-66
2021/06/02 03:01:47;;;;;;;4.68;4.47;;;;;;;11.92;72.23;101057.87;4433395;32;20166;-65
2021/06/02 03:04:23;;;;;;;4.37;4.18;;;;;;;11.88;72.82;101059.78;4397124;32;20198;-67
2021/06/02 03:06:52;;;;;;;4.90;4.70;;;;;;;11.82;72.91;101054.00;4394915;32;20124;-66
2021/06/02 03:09:47;;;;;;;4.22;4.03;;;;;;;11.76;72.33;101060.41;4394161;32;20079;-68
2021/06/02 03:12:23;;;;;;;4.40;4.20;;;;;;;11.72;72.26;101058.88;4406708;32;20087;-65
2021/06/02 03:15:07;;;;;;;4.30;4.10;;;;;;;11.69;72.68;101062.50;4418499;32;20065;-65
2021/06/02 03:17:42;;;;;;;4.32;4.12;;;;;;;11.65;72.87;101063.59;4418862;32;20216;-66
2021/06/02 03:20:07;;;;;;;4.07;3.87;;;;;;;11.62;72.58;101065.53;4418151;32;20060;-66
2021/06/02 03:23:00;;;;;;;4.37;4.18;;;;;;;11.58;72.41;101064.81;4417232;32;20191;-68
2021/06/02 03:25:37;;;;;;;4.28;4.07;;;;;;;11.57;72.11;101073.66;4409208;32;20077;-68
2021/06/02 03:28:41;;;;;;;4.28;4.07;;;;;;;11.58;72.57;101060.41;4425226;32;20111;-67
2021/06/02 03:31:28;;;;;;;4.50;4.30;;;;;;;11.61;72.02;101054.16;4411423;32;20073;-68
2021/06/02 03:34:21;;;;;;;4.20;4.00;;;;;;;11.62;72.22;101069.00;4427211;32;20073;-65
2021/06/02 03:37:06;;;;;;;4.10;3.90;;;;;;;11.68;72.74;101070.47;4422429;32;20640;-67
2021/06/02 03:39:58;;;;;;;4.60;4.40;;;;;;;11.71;71.83;101080.84;4439129;32;20086;-67
2021/06/02 03:42:53;;;;;;;4.10;3.90;;;;;;;11.78;71.03;101079.59;4386715;32;20573;-67
2021/06/02 03:45:42;;;;;;;4.22;4.03;;;;;;;11.80;72.29;101075.09;4393600;32;20088;-67
2021/06/02 03:48:45;;;;;;;4.20;4.00;;;;;;;11.88;71.01;101075.56;4434449;32;20099;-67
2021/06/02 03:51:25;;;;;;;4.18;3.97;;;;;;;11.92;70.95;101074.50;4445486;32;20092;-67
2021/06/02 03:54:32;;;;;;;4.22;4.03;;;;;;;11.99;70.71;101075.06;4410191;32;20491;-67
2021/06/02 03:57:02;;;;;;;4.05;3.85;;;;;;;12.04;70.74;101066.91;4421307;32;20433;-68
2021/06/02 03:59:49;;;;;;;4.37;4.18;;;;;;;12.05;70.76;101076.50;4405917;32;20080;-66
2021/06/02 04:02:18;;;;;;;4.07;3.87;;;;;;;12.09;71.15;101071.00;4418323;32;20195;-66
2021/06/02 04:05:05;;;;;;;4.20;4.00;;;;;;;12.20;70.84;101077.47;4433405;32;20146;-65
2021/06/02 04:07:34;;;;;;;4.47;4.28;;;;;;;12.53;70.94;101086.19;4430873;32;20086;-66
2021/06/02 04:10:05;;;;;;;4.15;3.95;;;;;;;13.41;69.42;101081.34;4409636;32;20179;-66
2021/06/02 04:12:33;;;;;;;4.20;4.00;;;;;;;14.56;65.98;101086.78;4399035;32;20238;-66
2021/06/02 04:14:59;;;;;;;4.37;4.18;;;;;;;15.45;63.88;101070.44;4432172;32;20064;-66
2021/06/02 04:17:26;;;;;;;4.50;4.30;;;;;;;16.27;60.57;101056.97;4395946;32;20658;-66
2021/06/02 04:19:51;;;;;;;4.53;4.32;;;;;;;17.04;58.06;101070.87;4407859;32;20085;-66
2021/06/02 04:22:20;;;;;;;4.60;4.40;;;;;;;17.38;56.52;101065.72;4411595;32;20080;-65
2021/06/02 04:24:46;;;;;;;5.07;4.87;;;;;;;16.88;57.04;101075.62;4408548;32;20077;-66
2021/06/02 04:27:13;;;;;;;5.10;4.90;;;;;;;17.46;55.48;101062.47;4408403;32;20065;-66
2021/06/02 04:29:38;;;;;;;4.80;4.60;;;;;;;18.08;53.90;101069.28;4398705;32;20244;-66
2021/06/02 04:32:07;;;;;;;4.75;4.55;;;;;;;18.44;52.51;101067.34;4397578;32;20337;-66
2021/06/02 04:34:33;;;;;;;4.80;4.60;;;;;;;18.72;52.58;101063.31;4397171;32;20069;-66
2021/06/02 04:37:02;;;;;;;5.00;4.80;;;;;;;19.06;51.92;101063.25;4394625;32;20102;-67
2021/06/02 04:39:28;;;;;;;5.22;5.00;;;;;;;19.53;49.55;101061.13;4399058;32;20437;-67
2021/06/02 04:41:54;;;;;;;4.87;4.68;;;;;;;19.96;48.23;101059.31;4430234;32;20663;-66
2021/06/02 04:44:21;;;;;;;4.80;4.60;;;;;;;20.49;47.64;101067.13;4401985;32;20610;-66
2021/06/02 04:46:47;;;;;;;5.25;5.05;;;;;;;20.88;46.39;101067.22;4406425;32;20073;-67
2021/06/02 04:49:13;;;;;;;5.37;5.18;;;;;;;21.52;44.96;101060.53;4399373;32;20099;-67
2021/06/02 04:51:42;;;;;;;5.70;5.40;;;;;;;21.91;44.79;101063.16;4413724;32;20064;-67
2021/06/02 04:54:35;;;;;;;5.22;5.03;;;;;;;22.22;43.59;101057.53;4433608;32;20073;-66
2021/06/02 04:57:19;;;;;;;5.82;5.53;;;;;;;22.64;42.39;101067.78;4435262;32;20077;-66
2021/06/02 05:00:03;;;;;;;5.20;5.00;;;;;;;22.82;42.47;101062.47;4439210;32;20975;-67
2021/06/02 05:02:44;;;;;;;5.43;5.12;;;;;;;22.95;41.81;101060.22;4418240;32;20154;-67
2021/06/02 05:05:49;;;;;;;5.57;5.28;;;;;;;22.75;42.39;101058.69;4421070;32;20107;-67
2021/06/02 05:08:39;;;;;;;5.40;5.10;;;;;;;23.24;42.98;101065.41;4420247;32;20099;-66
2021/06/02 05:11:46;;;;;;;5.50;5.25;;;;;;;23.24;42.59;101072.59;4437066;32;20557;-66
2021/06/02 05:14:48;;;;;;;5.45;5.15;;;;;;;23.23;41.48;101070.91;4380358;32;20116;-66
2021/06/02 05:17:54;;;;;;;5.40;5.10;;;;;;;23.27;37.72;101073.12;4380438;32;20078;-67
2021/06/02 05:22:04;;;;;;;5.35;5.07;;;;;;;22.86;36.87;101074.53;4402797;32;20633;-67
2021/06/02 05:24:04;;;;;;;5.72;5.43;;;;;;;22.57;38.26;101067.53;4425300;32;20079;-67
2021/06/02 05:26:47;;;;;;;5.90;5.50;;;;;;;23.06;37.84;101070.75;4389491;32;20310;-67
2021/06/02 05:29:32;;;;;;;5.90;5.60;;;;;;;22.96;37.04;101077.16;4426485;32;20099;-67
2021/06/02 05:32:23;;;;;;;5.68;5.37;;;;;;;23.26;36.86;101078.66;4437300;32;20079;-67
2021/06/02 05:34:57;;;;;;;5.70;5.40;;;;;;;23.75;35.89;101078.19;4415071;32;20077;-67
2021/06/02 05:37:45;;;;;;;5.32;5.03;;;;;;;23.89;35.17;101075.81;4415052;32;21352;-67
2021/06/02 05:40:32;;;;;;;5.95;5.65;;;;;;;23.42;36.21;101078.78;4421400;32;20064;-67
2021/06/02 05:43:29;;;;;;;6.15;5.78;;;;;;;23.60;35.60;101072.56;4410165;32;20215;-67
2021/06/02 05:46:20;;;;;;;5.47;5.18;;;;;;;23.95;35.84;101077.00;4400284;32;20081;-67
2021/06/02 05:49:09;;;;;;;5.68;5.35;;;;;;;24.19;35.90;101073.63;4419489;32;20119;-67
2021/06/02 05:51:52;;;;;;;5.57;5.28;;;;;;;24.53;34.33;101078.16;4418415;32;20134;-67
2021/06/02 05:54:43;;;;;;;5.50;5.20;;;;;;;25.20;33.74;101077.31;4434456;32;20084;-67
2021/06/02 05:57:26;;;;;;;5.40;5.10;;;;;;;25.67;32.10;101064.03;4425432;32;20451;-67
2021/06/02 05:59:56;;;;;;;6.00;5.22;;;;;;;25.62;32.03;101062.91;4409013;32;20666;-66
2021/06/02 06:02:43;;;;;;;5.80;5.50;;;;;;;25.37;33.19;101064.75;4422110;32;20094;-67
2021/06/02 06:05:37;;;;;;;5.07;4.85;;;;;;;24.99;33.77;101062.50;4421926;32;20763;-65
2021/06/02 06:08:11;;;;;;;5.60;5.30;;;;;;;23.65;35.46;101057.72;4437893;32;20155;-64
2021/06/02 06:11:10;;;;;;;6.28;5.82;;;;;;;23.79;35.39;101058.97;4415806;32;20071;-65
2021/06/02 06:14:00;;;;;;;5.18;4.97;;;;;;;24.17;35.61;101059.53;4436576;32;20171;-65
2021/06/02 06:16:43;;;;;;;5.55;5.25;;;;;;;24.35;34.39;101067.50;4417952;32;20187;-65
2021/06/02 06:19:32;;;;;;;5.47;5.28;;;;;;;24.37;34.84;101059.28;4423285;32;20295;-64
2021/06/02 06:22:16;;;;;;;5.20;5.00;;;;;;;23.25;36.54;101067.09;4435054;32;20170;-65
2021/06/02 06:24:50;;;;;;;5.93;5.62;;;;;;;22.91;36.76;101064.19;4432297;32;20113;-65
2021/06/02 06:27:29;;;;;;;5.93;5.62;;;;;;;21.97;38.76;101059.88;4401495;32;20802;-65
2021/06/02 06:30:08;;;;;;;5.43;5.18;;;;;;;21.45;40.62;101068.28;4399126;32;20119;-70
2021/06/02 06:32:35;;;;;;;5.55;5.25;;;;;;;21.47;39.55;101068.97;4410290;32;20078;-67
2021/06/02 06:35:01;;;;;;;5.65;5.35;;;;;;;21.20;40.71;101077.66;4398027;32;20138;-66
2021/06/02 06:37:31;;;;;;;5.18;4.97;;;;;;;21.00;41.69;101079.47;4448993;32;20432;-63
2021/06/02 06:39:57;;;;;;;6.05;5.75;;;;;;;20.90;42.21;101071.44;4412231;32;20103;-67
2021/06/02 06:42:43;;;;;;;5.78;5.45;;;;;;;21.19;41.30;101075.13;4421599;32;20087;-67
2021/06/02 06:45:16;;;;;;;6.03;5.72;;;;;;;20.90;42.56;101068.78;4435410;32;20419;-67
2021/06/02 06:47:41;;;;;;;5.72;5.43;;;;;;;20.87;42.55;101073.56;4416890;32;20119;-67
2021/06/02 06:50:10;;;;;;;5.40;5.15;;;;;;;20.83;43.13;101074.81;4420462;32;20570;-67
2021/06/02 06:52:36;;;;;;;5.37;5.12;;;;;;;21.01;42.51;101072.31;4411545;32;20087;-67
2021/06/02 06:55:02;;;;;;;5.82;5.53;;;;;;;20.76;43.40;101065.69;4415613;32;20076;-66
2021/06/02 06:57:27;;;;;;;4.90;4.70;;;;;;;20.79;43.24;101063.59;4411769;32;20472;-69
2021/06/02 06:59:53;;;;;;;5.45;5.18;;;;;;;20.84;42.88;101058.66;4414824;32;20092;-69
2021/06/02 07:02:19;;;;;;;5.18;4.97;;;;;;;21.01;42.27;101067.81;4391900;32;20068;-69
2021/06/02 07:04:44;;;;;;;5.20;5.00;;;;;;;20.77;42.97;101030.00;4406711;32;20226;-68
2021/06/02 07:07:09;;;;;;;5.37;5.18;;;;;;;21.05;41.97;101077.25;4411769;32;20088;-68
2021/06/02 07:09:35;;;;;;;5.30;5.10;;;;;;;21.20;41.42;101076.81;4413022;32;20077;-69
2021/06/02 07:12:00;;;;;;;5.50;5.25;;;;;;;21.47;41.47;101074.31;4408233;32;20104;-69
2021/06/02 07:14:29;;;;;;;5.35;5.07;;;;;;;21.61;41.17;101072.19;4408138;32;20072;-68
2021/06/02 07:16:54;;;;;;;5.10;4.90;;;;;;;21.52;41.27;101065.88;4413889;32;20191;-69
2021/06/02 07:19:20;;;;;;;5.18;4.97;;;;;;;21.57;41.31;101073.44;4406876;32;20068;-70
2021/06/02 07:21:45;;;;;;;5.30;5.00;;;;;;;21.73;40.60;101065.72;4450457;32;20129;-68
2021/06/02 07:24:11;;;;;;;5.50;5.10;;;;;;;21.88;40.01;101074.94;4408336;32;20077;-68
2021/06/02 07:26:38;;;;;;;5.43;5.18;;;;;;;21.94;40.40;101067.34;4413503;32;20128;-68
2021/06/02 07:29:04;;;;;;;5.50;5.20;;;;;;;22.09;40.14;101060.53;4412764;32;20395;-68
2021/06/02 07:31:29;;;;;;;5.28;5.07;;;;;;;22.07;39.84;101059.81;4395364;32;20607;-66
2021/06/02 07:33:54;;;;;;;5.30;5.00;;;;;;;21.04;38.93;100875.41;4444327;32;20096;-66
2021/06/02 07:36:20;;;;;;;5.18;4.97;;;;;;;21.82;38.68;101066.66;4397141;32;20072;-67
2021/06/02 07:38:45;;;;;;;5.45;5.25;;;;;;;21.82;39.74;101067.50;4406868;32;20150;-66
2021/06/02 07:41:10;;;;;;;5.43;5.03;;;;;;;21.90;39.51;101059.59;4432932;32;20081;-68
2021/06/02 07:43:36;;;;;;;5.97;5.68;;;;;;;22.21;38.51;101059.38;4428526;32;20582;-67
2021/06/02 07:46:01;;;;;;;5.53;5.22;;;;;;;22.40;38.37;101065.66;4416622;32;20072;-67
2021/06/02 07:48:27;;;;;;;5.00;4.80;;;;;;;22.30;38.17;101057.66;4453146;32;20938;-67
2021/06/02 07:50:52;;;;;;;5.10;4.90;;;;;;;22.60;38.53;101058.38;4429301;32;20880;-67
2021/06/02 07:53:18;;;;;;;5.03;4.78;;;;;;;22.78;37.18;101056.56;4431376;32;20214;-67
2021/06/02 07:55:43;;;;;;;5.40;5.10;;;;;;;22.69;38.12;101065.47;4426760;32;20611;-67
2021/06/02 07:58:08;;;;;;;5.28;4.95;;;;;;;22.89;37.41;101053.69;4420799;32;20064;-67
2021/06/02 08:00:34;;;;;;;5.57;5.18;;;;;;;23.01;36.89;101051.63;4425721;32;20062;-67
2021/06/02 08:02:59;;;;;;;5.20;4.90;;;;;;;23.03;36.80;101059.50;4415610;32;20156;-67
2021/06/02 08:05:25;;;;;;;5.10;4.90;;;;;;;23.23;37.02;101063.75;4427117;32;20664;-67
2021/06/02 08:07:50;;;;;;;5.35;5.15;;;;;;;23.48;36.74;101062.09;4431138;32;20103;-67
2021/06/02 08:10:16;;;;;;;5.55;5.25;;;;;;;23.48;37.05;101062.09;4426368;32;20418;-67
2021/06/02 08:12:41;;;;;;;5.18;4.97;;;;;;;23.48;35.31;101040.66;4419188;32;20534;-67
2021/06/02 08:15:08;;;;;;;4.90;4.70;;;;;;;23.77;35.32;101055.62;4425951;32;20075;-68
2021/06/02 08:17:34;;;;;;;5.82;5.37;;;;;;;22.85;36.13;100886.38;4416355;32;20773;-66
2021/06/02 08:20:00;;;;;;;5.60;5.30;;;;;;;23.94;35.09;101058.41;4414858;32;20172;-69
2021/06/02 08:22:25;;;;;;;5.40;4.93;;;;;;;23.81;34.57;101034.69;4420087;32;20611;-67
2021/06/02 08:24:50;;;;;;;5.35;5.07;;;;;;;24.01;34.66;101059.44;4432041;32;20102;-67
2021/06/02 08:27:16;;;;;;;5.20;4.90;;;;;;;24.14;33.88;101051.81;4431603;32;20099;-67
2021/06/02 08:29:41;;;;;;;5.40;5.10;;;;;;;24.29;34.34;101052.03;4434045;32;20883;-68
2021/06/02 08:32:07;;;;;;;5.32;5.05;;;;;;;24.47;34.88;101066.19;4416972;32;20059;-67
2021/06/02 08:34:32;;;;;;;5.05;4.85;;;;;;;24.77;35.28;101065.81;4430649;32;20064;-67
2021/06/02 08:36:58;;;;;;;5.03;4.80;;;;;;;24.94;33.83;101061.31;4413252;32;20063;-67
2021/06/02 08:39:23;;;;;;;5.47;5.18;;;;;;;25.08;33.20;101066.06;4433876;32;20068;-67
2021/06/02 08:41:50;;;;;;;5.30;5.00;;;;;;;24.92;33.58;101058.81;4430266;32;20460;-67
2021/06/02 08:44:16;;;;;;;5.80;5.50;;;;;;;24.50;31.95;100992.63;4432892;32;20067;-67
2021/06/02 08:46:42;;;;;;;5.20;5.00;;;;;;;24.99;33.09;101065.19;4430410;32;20069;-67
2021/06/02 08:49:07;;;;;;;5.07;4.87;;;;;;;25.19;31.80;101059.50;4433330;32;20637;-67
2021/06/02 08:51:35;;;;;;;5.20;5.00;;;;;;;24.73;30.48;101016.16;4428636;32;20407;-67
2021/06/02 08:54:01;;;;;;;5.53;5.22;;;;;;;24.99;31.38;101057.13;4434186;32;20102;-67
2021/06/02 08:56:28;;;;;;;5.87;5.57;;;;;;;25.12;31.29;101056.66;4415107;32;20082;-67
2021/06/02 08:58:53;;;;;;;5.40;5.10;;;;;;;25.18;30.20;101052.47;4431091;32;20711;-67
2021/06/02 09:01:18;;;;;;;5.25;5.00;;;;;;;25.37;30.76;101049.47;4455697;32;20053;-68
2021/06/02 09:03:44;;;;;;;5.43;5.12;;;;;;;25.44;29.86;101053.16;4432617;32;20554;-67
2021/06/02 09:06:10;;;;;;;5.15;4.95;;;;;;;25.47;29.43;101046.59;4414466;32;20084;-67
2021/06/02 09:08:38;;;;;;;4.95;4.75;;;;;;;25.61;28.34;101048.59;4455671;32;20068;-67
2021/06/02 09:11:19;;;;;;;5.20;5.00;;;;;;;25.63;30.30;101045.75;4418295;32;20092;-67
2021/06/02 09:13:45;;;;;;;5.30;5.00;;;;;;;25.67;29.66;101049.78;4427151;32;20217;-67
2021/06/02 09:16:17;;;;;;;5.20;5.00;;;;;;;25.48;29.81;101043.75;4431203;32;20558;-67
2021/06/02 09:18:47;;;;;;;5.68;5.28;;;;;;;25.59;30.94;101047.94;4442364;32;20098;-67
2021/06/02 09:21:12;;;;;;;5.10;4.90;;;;;;;24.82;29.06;100873.72;4419241;32;20092;-67
2021/06/02 09:23:39;;;;;;;5.30;5.05;;;;;;;26.12;29.24;101042.97;4452211;32;20503;-67
2021/06/02 09:26:11;;;;;;;5.45;5.15;;;;;;;26.14;27.02;101045.47;4418031;32;20090;-67
2021/06/02 09:28:46;;;;;;;6.28;5.87;;;;;;;26.05;26.98;101047.37;4437586;32;20079;-67
2021/06/02 09:31:37;;;;;;;5.47;5.20;;;;;;;26.07;28.42;101054.25;4431764;32;20072;-67
2021/06/02 09:34:06;;;;;;;5.40;5.10;;;;;;;26.18;28.93;101042.28;4439180;32;20064;-67
2021/06/02 09:36:33;;;;;;;5.20;5.00;;;;;;;26.34;28.89;101043.22;4454404;32;20064;-67
2021/06/02 09:39:01;;;;;;;5.30;5.10;;;;;;;26.35;27.05;101048.44;4414298;32;20604;-67
2021/06/02 09:41:27;;;;;;;5.00;4.80;;;;;;;26.47;28.03;101038.94;4428937;32;20507;-67
2021/06/02 09:43:53;;;;;;;5.03;4.75;;;;;;;26.39;24.48;101041.69;4451493;32;20056;-67
2021/06/02 09:46:18;;;;;;;5.20;4.90;;;;;;;26.43;25.78;101042.16;4432169;32;20136;-67
2021/06/02 09:48:47;;;;;;;5.40;5.10;;;;;;;26.31;26.64;101043.56;4427713;32;20072;-66
2021/06/02 09:51:32;;;;;;;5.68;5.37;;;;;;;26.44;28.18;101041.13;4445313;32;20068;-67
2021/06/02 09:54:01;;;;;;;5.25;5.05;;;;;;;26.61;26.20;101036.56;4429516;32;20290;-67
2021/06/02 09:56:40;;;;;;;5.28;5.00;;;;;;;26.58;27.44;101027.00;4418409;32;20473;-67
2021/06/02 09:59:08;;;;;;;5.43;5.12;;;;;;;26.57;25.87;101041.41;4449911;32;20296;-67
2021/06/02 10:02:00;;;;;;;5.60;5.30;;;;;;;26.73;26.18;101037.00;4419695;32;20874;-67
2021/06/02 10:04:33;;;;;;;5.00;4.80;;;;;;;26.71;24.40;101036.34;4420364;32;20076;-67
2021/06/02 10:06:58;;;;;;;5.10;4.90;;;;;;;26.80;23.32;101037.94;4429332;32;20660;-67
2021/06/02 10:09:34;;;;;;;5.40;5.20;;;;;;;26.73;24.33;101037.00;4411680;32;20367;-67
2021/06/02 10:12:10;;;;;;;5.05;4.85;;;;;;;26.44;25.06;101019.59;4418907;32;20126;-67
2021/06/02 10:15:00;;;;;;;5.62;5.35;;;;;;;26.65;23.76;101027.94;4415227;32;20091;-67
2021/06/02 10:17:33;;;;;;;5.40;5.00;;;;;;;26.65;24.93;101025.25;4441632;32;20069;-67
2021/06/02 10:20:10;;;;;;;5.70;5.20;;;;;;;26.76;23.91;101037.47;4415463;32;21298;-66
2021/06/02 10:22:36;;;;;;;5.30;5.10;;;;;;;26.54;23.68;100963.72;4421626;32;20508;-67
2021/06/02 10:25:04;;;;;;;5.35;5.10;;;;;;;27.18;23.69;101038.00;4414132;32;20312;-67
2021/06/02 10:27:29;;;;;;;5.30;5.05;;;;;;;27.35;23.10;101036.06;4417922;32;20060;-67
2021/06/02 10:29:55;;;;;;;4.95;4.75;;;;;;;27.28;23.46;101029.69;4430655;32;20078;-67
2021/06/02 10:32:21;;;;;;;5.20;5.00;;;;;;;27.34;24.29;101023.59;4417984;32;20223;-68
2021/06/02 10:34:46;;;;;;;5.00;4.80;;;;;;;27.42;22.79;101036.97;4431797;32;20085;-67
2021/06/02 10:37:13;;;;;;;6.57;6.28;;;;;;;27.42;21.25;101032.44;4413891;32;20076;-71
2021/06/02 10:39:40;;;;;;;5.05;4.85;;;;;;;27.37;22.23;101040.22;4431540;32;20072;-69
2021/06/02 10:42:46;;;;;;;5.28;5.05;;;;;;;27.08;22.96;101038.25;4448649;32;20208;-69
2021/06/02 10:45:18;;;;;;;5.87;5.57;;;;;;;27.38;22.72;101027.59;4381700;32;20725;-68
2021/06/02 10:47:43;;;;;;;5.62;5.32;;;;;;;27.21;22.21;101030.41;4381149;32;20180;-69
2021/06/02 10:50:27;;;;;;;4.87;4.68;;;;;;;26.82;23.54;101030.53;4409941;32;20064;-68
2021/06/02 10:52:52;;;;;;;4.90;4.70;;;;;;;27.10;23.89;101030.00;4433963;32;20641;-68
2021/06/02 10:55:37;;;;;;;5.20;4.95;;;;;;;27.14;23.66;101031.31;4416341;32;20091;-68
2021/06/02 10:58:16;;;;;;;4.97;4.78;;;;;;;27.29;22.58;101024.13;4413356;32;20109;-68
2021/06/02 11:00:41;;;;;;;5.43;5.12;;;;;;;27.36;22.51;101026.94;4452685;32;20126;-68
2021/06/02 11:03:19;;;;;;;5.10;4.90;;;;;;;27.62;23.55;101021.13;4449610;32;20091;-67
2021/06/02 11:05:45;;;;;;;5.10;4.90;;;;;;;27.61;23.01;101009.50;4443670;32;20068;-67
2021/06/02 11:08:10;;;;;;;5.10;4.90;;;;;;;27.54;22.98;101016.66;4413499;32;20068;-66
2021/06/02 11:10:35;;;;;;;5.05;4.85;;;;;;;27.67;22.36;101013.31;4417379;32;20712;-66
2021/06/02 11:13:01;;;;;;;5.28;5.00;;;;;;;28.01;23.88;101011.97;4413086;32;20366;-66
2021/06/02 11:15:36;;;;;;;5.15;4.95;;;;;;;27.93;23.29;101012.91;4431643;32;20254;-66
2021/06/02 11:18:11;;;;;;;5.70;5.20;;;;;;;28.13;23.78;101007.75;4454858;32;20251;-66
2021/06/02 11:20:50;;;;;;;5.20;5.00;;;;;;;28.16;22.80;101012.78;4440885;32;20154;-66
2021/06/02 11:23:20;;;;;;;5.28;5.00;;;;;;;27.58;23.52;101012.59;4415650;32;20128;-66
2021/06/02 11:25:45;;;;;;;5.30;5.00;;;;;;;27.81;23.38;101012.50;4432619;32;20106;-69
2021/06/02 11:28:40;;;;;;;5.10;4.90;;;;;;;27.81;23.21;101025.16;4427854;32;20076;-68
2021/06/02 11:31:24;;;;;;;5.12;4.93;;;;;;;28.04;23.03;101008.88;4444185;32;20076;-68
2021/06/02 11:33:50;;;;;;;5.30;5.00;;;;;;;28.18;23.04;101016.13;4440127;32;20068;-67
2021/06/02 11:36:15;;;;;;;5.40;5.10;;;;;;;28.11;23.23;101001.72;4431397;32;20071;-68
2021/06/02 11:38:41;;;;;;;5.10;4.80;;;;;;;27.98;22.84;101020.41;4427002;32;20083;-68
2021/06/02 11:41:07;;;;;;;5.18;4.97;;;;;;;27.89;21.82;101006.19;4432916;32;20074;-68
2021/06/02 11:43:32;;;;;;;5.53;5.22;;;;;;;27.93;23.70;101007.50;4430036;32;20202;-70
2021/06/02 11:45:59;;;;;;;5.10;4.90;;;;;;;28.02;21.50;101000.13;4418177;32;20076;-68
2021/06/02 11:48:26;;;;;;;5.00;4.80;;;;;;;27.59;22.37;100956.78;4428618;32;20080;-68
2021/06/02 11:50:52;;;;;;;5.15;4.95;;;;;;;27.99;22.36;101001.34;4430012;32;20548;-68
2021/06/02 11:53:18;;;;;;;5.65;5.35;;;;;;;27.87;22.37;101005.56;4426889;32;20082;-68
2021/06/02 11:55:43;;;;;;;5.20;5.00;;;;;;;27.97;22.70;101000.72;4430912;32;20072;-68